sensor_id;sensor_type;location;lat;lon;timestamp;P1;durP1;ratioP1;P2;durP2;ratioP2
12947;SDS011;6539;49.476;8.484;2022-11-13T00:01:14;26.27;;;19.47;;
12947;SDS011;6539;49.476;8.484;2022-11-13T00:03:47;36.20;;;24.10;;
12947;SDS011;6539;49.476;8.484;2022-11-13T00:06:15;39.77;;;28.70;;
12947;SDS011;6539;49.476;8.484;2022-11-13T00:08:42;36.73;;;24.37;;
12947;SDS011;6539;49.476;8.484;2022-11-13T00:11:10;37.90;;;22.20;;
12947;SDS011;6539;49.476;8.484;2022-11-13T00:13:40;33.33;;;21.43;;
12947;SDS011;6539;49.476;8.484;2022-11-13T00:16:08;34.30;;;22.20;;
12947;SDS011;6539;49.476;8.484;2022-11-13T00:18:38;38.43;;;23.50;;
12947;SDS011;6539;49.476;8.484;2022-11-13T00:23:44;44.20;;;25.60;;
12947;SDS011;6539;49.476;8.484;2022-11-13T00:26:11;48.20;;;29.30;;
12947;SDS011;6539;49.476;8.484;2022-11-13T00:28:40;47.37;;;27.37;;
12947;SDS011;6539;49.476;8.484;2022-11-13T00:31:09;44.53;;;26.77;;
12947;SDS011;6539;49.476;8.484;2022-11-13T00:33:41;48.63;;;27.10;;
12947;SDS011;6539;49.476;8.484;2022-11-13T00:36:16;48.33;;;26.83;;
12947;SDS011;6539;49.476;8.484;2022-11-13T00:38:49;42.77;;;25.40;;
12947;SDS011;6539;49.476;8.484;2022-11-13T00:41:19;41.80;;;24.87;;
12947;SDS011;6539;49.476;8.484;2022-11-13T00:43:45;31.17;;;20.13;;
12947;SDS011;6539;49.476;8.484;2022-11-13T00:46:14;33.00;;;20.77;;
12947;SDS011;6539;49.476;8.484;2022-11-13T00:48:39;32.07;;;20.87;;
12947;SDS011;6539;49.476;8.484;2022-11-13T00:51:10;33.77;;;22.30;;
12947;SDS011;6539;49.476;8.484;2022-11-13T00:53:36;35.90;;;22.27;;
12947;SDS011;6539;49.476;8.484;2022-11-13T00:56:02;33.60;;;21.27;;
12947;SDS011;6539;49.476;8.484;2022-11-13T00:58:31;33.13;;;21.17;;
12947;SDS011;6539;49.476;8.484;2022-11-13T01:01:02;35.83;;;22.60;;
12947;SDS011;6539;49.476;8.484;2022-11-13T01:03:33;30.77;;;19.83;;
12947;SDS011;6539;49.476;8.484;2022-11-13T01:06:00;29.27;;;18.63;;
12947;SDS011;6539;49.476;8.484;2022-11-13T01:08:33;28.00;;;19.40;;
12947;SDS011;6539;49.476;8.484;2022-11-13T01:11:06;30.47;;;19.20;;
12947;SDS011;6539;49.476;8.484;2022-11-13T01:13:39;33.63;;;20.33;;
12947;SDS011;6539;49.476;8.484;2022-11-13T01:16:09;29.43;;;17.77;;
12947;SDS011;6539;49.476;8.484;2022-11-13T01:18:37;28.13;;;18.13;;
12947;SDS011;6539;49.476;8.484;2022-11-13T01:21:06;38.50;;;24.80;;
12947;SDS011;6539;49.476;8.484;2022-11-13T01:23:43;32.40;;;20.97;;
12947;SDS011;6539;49.476;8.484;2022-11-13T01:28:41;29.20;;;18.20;;
12947;SDS011;6539;49.476;8.484;2022-11-13T01:31:10;32.93;;;22.07;;
12947;SDS011;6539;49.476;8.484;2022-11-13T01:33:40;34.83;;;21.30;;
12947;SDS011;6539;49.476;8.484;2022-11-13T01:36:10;32.43;;;19.80;;
12947;SDS011;6539;49.476;8.484;2022-11-13T01:38:44;38.80;;;22.37;;
12947;SDS011;6539;49.476;8.484;2022-11-13T01:41:32;36.87;;;21.83;;
12947;SDS011;6539;49.476;8.484;2022-11-13T01:43:59;42.00;;;22.53;;
12947;SDS011;6539;49.476;8.484;2022-11-13T01:49:03;65.00;;;33.77;;
12947;SDS011;6539;49.476;8.484;2022-11-13T01:52:01;62.87;;;31.23;;
12947;SDS011;6539;49.476;8.484;2022-11-13T01:54:32;56.57;;;30.17;;
12947;SDS011;6539;49.476;8.484;2022-11-13T01:57:09;56.33;;;29.87;;
12947;SDS011;6539;49.476;8.484;2022-11-13T01:59:39;46.47;;;27.20;;
12947;SDS011;6539;49.476;8.484;2022-11-13T02:02:16;53.03;;;26.40;;
12947;SDS011;6539;49.476;8.484;2022-11-13T02:04:43;49.47;;;25.60;;
12947;SDS011;6539;49.476;8.484;2022-11-13T02:07:15;44.73;;;25.47;;
12947;SDS011;6539;49.476;8.484;2022-11-13T02:09:47;42.23;;;23.77;;
12947;SDS011;6539;49.476;8.484;2022-11-13T02:12:18;38.67;;;22.60;;
12947;SDS011;6539;49.476;8.484;2022-11-13T02:14:58;36.47;;;21.87;;
12947;SDS011;6539;49.476;8.484;2022-11-13T02:17:33;37.13;;;21.37;;
12947;SDS011;6539;49.476;8.484;2022-11-13T02:20:08;35.63;;;21.17;;
12947;SDS011;6539;49.476;8.484;2022-11-13T02:22:41;37.80;;;21.60;;
12947;SDS011;6539;49.476;8.484;2022-11-13T02:25:23;36.83;;;21.77;;
12947;SDS011;6539;49.476;8.484;2022-11-13T02:27:52;41.73;;;21.17;;
12947;SDS011;6539;49.476;8.484;2022-11-13T02:30:25;36.87;;;21.30;;
12947;SDS011;6539;49.476;8.484;2022-11-13T02:32:56;35.03;;;21.33;;
12947;SDS011;6539;49.476;8.484;2022-11-13T02:35:27;35.53;;;21.47;;
12947;SDS011;6539;49.476;8.484;2022-11-13T02:38:04;33.87;;;20.93;;
12947;SDS011;6539;49.476;8.484;2022-11-13T02:40:31;35.30;;;19.77;;
12947;SDS011;6539;49.476;8.484;2022-11-13T02:43:00;24.93;;;17.40;;
12947;SDS011;6539;49.476;8.484;2022-11-13T02:45:26;22.37;;;15.27;;
12947;SDS011;6539;49.476;8.484;2022-11-13T02:47:58;22.20;;;15.83;;
12947;SDS011;6539;49.476;8.484;2022-11-13T02:50:25;25.13;;;15.77;;
12947;SDS011;6539;49.476;8.484;2022-11-13T02:52:51;24.83;;;16.40;;
12947;SDS011;6539;49.476;8.484;2022-11-13T02:55:17;24.57;;;16.27;;
12947;SDS011;6539;49.476;8.484;2022-11-13T02:57:43;24.63;;;16.27;;
12947;SDS011;6539;49.476;8.484;2022-11-13T03:00:12;21.27;;;14.80;;
12947;SDS011;6539;49.476;8.484;2022-11-13T03:02:40;18.00;;;12.97;;
12947;SDS011;6539;49.476;8.484;2022-11-13T03:05:06;21.97;;;12.67;;
12947;SDS011;6539;49.476;8.484;2022-11-13T03:07:33;19.20;;;12.83;;
12947;SDS011;6539;49.476;8.484;2022-11-13T03:10:01;21.53;;;12.77;;
12947;SDS011;6539;49.476;8.484;2022-11-13T03:12:28;15.03;;;11.00;;
12947;SDS011;6539;49.476;8.484;2022-11-13T03:14:54;17.70;;;11.73;;
12947;SDS011;6539;49.476;8.484;2022-11-13T03:17:20;20.63;;;12.37;;
12947;SDS011;6539;49.476;8.484;2022-11-13T03:19:48;24.17;;;14.00;;
12947;SDS011;6539;49.476;8.484;2022-11-13T03:22:16;25.67;;;15.33;;
12947;SDS011;6539;49.476;8.484;2022-11-13T03:24:44;23.93;;;14.07;;
12947;SDS011;6539;49.476;8.484;2022-11-13T03:27:10;25.10;;;14.70;;
12947;SDS011;6539;49.476;8.484;2022-11-13T03:29:36;20.73;;;14.17;;
12947;SDS011;6539;49.476;8.484;2022-11-13T03:32:02;22.80;;;13.90;;
12947;SDS011;6539;49.476;8.484;2022-11-13T03:34:27;28.60;;;14.77;;
12947;SDS011;6539;49.476;8.484;2022-11-13T03:36:56;22.30;;;14.10;;
12947;SDS011;6539;49.476;8.484;2022-11-13T03:39:26;22.00;;;12.90;;
12947;SDS011;6539;49.476;8.484;2022-11-13T03:41:52;21.63;;;13.50;;
12947;SDS011;6539;49.476;8.484;2022-11-13T03:44:17;19.20;;;13.13;;
12947;SDS011;6539;49.476;8.484;2022-11-13T03:46:45;16.87;;;12.33;;
12947;SDS011;6539;49.476;8.484;2022-11-13T03:49:11;17.40;;;13.13;;
12947;SDS011;6539;49.476;8.484;2022-11-13T03:51:40;18.20;;;12.87;;
12947;SDS011;6539;49.476;8.484;2022-11-13T03:54:06;17.00;;;12.00;;
12947;SDS011;6539;49.476;8.484;2022-11-13T03:56:32;12.70;;;10.87;;
12947;SDS011;6539;49.476;8.484;2022-11-13T03:58:58;15.07;;;12.17;;
12947;SDS011;6539;49.476;8.484;2022-11-13T04:01:24;13.23;;;9.63;;
12947;SDS011;6539;49.476;8.484;2022-11-13T04:03:50;12.30;;;10.77;;
12947;SDS011;6539;49.476;8.484;2022-11-13T04:06:16;15.23;;;10.93;;
12947;SDS011;6539;49.476;8.484;2022-11-13T04:08:45;15.17;;;10.93;;
12947;SDS011;6539;49.476;8.484;2022-11-13T04:11:11;14.00;;;10.40;;
12947;SDS011;6539;49.476;8.484;2022-11-13T04:13:37;12.07;;;10.13;;
12947;SDS011;6539;49.476;8.484;2022-11-13T04:16:04;11.80;;;9.10;;
12947;SDS011;6539;49.476;8.484;2022-11-13T04:18:30;11.27;;;8.87;;
12947;SDS011;6539;49.476;8.484;2022-11-13T04:21:00;13.97;;;9.53;;
12947;SDS011;6539;49.476;8.484;2022-11-13T04:23:31;11.80;;;9.13;;
12947;SDS011;6539;49.476;8.484;2022-11-13T04:26:01;12.10;;;9.20;;
12947;SDS011;6539;49.476;8.484;2022-11-13T04:28:27;10.73;;;8.90;;
12947;SDS011;6539;49.476;8.484;2022-11-13T04:30:53;9.50;;;8.50;;
12947;SDS011;6539;49.476;8.484;2022-11-13T04:33:20;11.23;;;8.37;;
12947;SDS011;6539;49.476;8.484;2022-11-13T04:35:46;9.80;;;8.23;;
12947;SDS011;6539;49.476;8.484;2022-11-13T04:38:12;10.33;;;8.97;;
12947;SDS011;6539;49.476;8.484;2022-11-13T04:40:39;10.23;;;8.40;;
12947;SDS011;6539;49.476;8.484;2022-11-13T04:43:06;11.00;;;9.37;;
12947;SDS011;6539;49.476;8.484;2022-11-13T04:45:32;10.53;;;8.53;;
12947;SDS011;6539;49.476;8.484;2022-11-13T04:48:00;9.73;;;7.80;;
12947;SDS011;6539;49.476;8.484;2022-11-13T04:50:26;10.97;;;9.03;;
12947;SDS011;6539;49.476;8.484;2022-11-13T04:52:52;11.97;;;8.93;;
12947;SDS011;6539;49.476;8.484;2022-11-13T04:55:20;11.43;;;9.33;;
12947;SDS011;6539;49.476;8.484;2022-11-13T04:57:46;13.07;;;10.30;;
12947;SDS011;6539;49.476;8.484;2022-11-13T05:00:19;13.57;;;10.47;;
12947;SDS011;6539;49.476;8.484;2022-11-13T05:02:45;12.13;;;9.67;;
12947;SDS011;6539;49.476;8.484;2022-11-13T05:05:11;11.80;;;9.33;;
12947;SDS011;6539;49.476;8.484;2022-11-13T05:07:36;11.00;;;8.87;;
12947;SDS011;6539;49.476;8.484;2022-11-13T05:10:06;12.10;;;9.40;;
12947;SDS011;6539;49.476;8.484;2022-11-13T05:12:32;10.30;;;9.13;;
12947;SDS011;6539;49.476;8.484;2022-11-13T05:14:58;12.47;;;9.23;;
12947;SDS011;6539;49.476;8.484;2022-11-13T05:17:24;11.60;;;9.90;;
12947;SDS011;6539;49.476;8.484;2022-11-13T05:19:52;11.10;;;9.20;;
12947;SDS011;6539;49.476;8.484;2022-11-13T05:22:20;10.40;;;8.57;;
12947;SDS011;6539;49.476;8.484;2022-11-13T05:24:46;10.03;;;8.70;;
12947;SDS011;6539;49.476;8.484;2022-11-13T05:27:16;11.67;;;8.90;;
12947;SDS011;6539;49.476;8.484;2022-11-13T05:29:42;10.67;;;8.60;;
12947;SDS011;6539;49.476;8.484;2022-11-13T05:32:08;10.03;;;8.53;;
12947;SDS011;6539;49.476;8.484;2022-11-13T05:34:36;11.57;;;9.00;;
12947;SDS011;6539;49.476;8.484;2022-11-13T05:37:01;9.03;;;7.93;;
12947;SDS011;6539;49.476;8.484;2022-11-13T05:39:27;10.63;;;8.50;;
12947;SDS011;6539;49.476;8.484;2022-11-13T05:41:54;10.50;;;7.83;;
12947;SDS011;6539;49.476;8.484;2022-11-13T05:44:19;8.67;;;7.77;;
12947;SDS011;6539;49.476;8.484;2022-11-13T05:46:45;9.27;;;7.60;;
12947;SDS011;6539;49.476;8.484;2022-11-13T05:49:11;8.67;;;7.77;;
12947;SDS011;6539;49.476;8.484;2022-11-13T05:51:39;8.63;;;7.73;;
12947;SDS011;6539;49.476;8.484;2022-11-13T05:54:05;9.43;;;7.70;;
12947;SDS011;6539;49.476;8.484;2022-11-13T05:56:34;9.00;;;7.53;;
12947;SDS011;6539;49.476;8.484;2022-11-13T05:59:02;10.00;;;8.20;;
12947;SDS011;6539;49.476;8.484;2022-11-13T06:01:32;9.00;;;8.10;;
12947;SDS011;6539;49.476;8.484;2022-11-13T06:04:04;8.43;;;7.53;;
12947;SDS011;6539;49.476;8.484;2022-11-13T06:06:34;11.60;;;8.10;;
12947;SDS011;6539;49.476;8.484;2022-11-13T06:09:00;10.93;;;8.80;;
12947;SDS011;6539;49.476;8.484;2022-11-13T06:11:29;10.20;;;7.73;;
12947;SDS011;6539;49.476;8.484;2022-11-13T06:13:56;9.60;;;7.47;;
12947;SDS011;6539;49.476;8.484;2022-11-13T06:16:28;9.80;;;8.30;;
12947;SDS011;6539;49.476;8.484;2022-11-13T06:19:00;12.53;;;7.90;;
12947;SDS011;6539;49.476;8.484;2022-11-13T06:21:30;10.50;;;7.93;;
12947;SDS011;6539;49.476;8.484;2022-11-13T06:23:59;10.13;;;7.93;;
12947;SDS011;6539;49.476;8.484;2022-11-13T06:26:29;11.50;;;8.73;;
12947;SDS011;6539;49.476;8.484;2022-11-13T06:28:58;9.70;;;8.10;;
12947;SDS011;6539;49.476;8.484;2022-11-13T06:31:28;9.10;;;7.90;;
12947;SDS011;6539;49.476;8.484;2022-11-13T06:34:00;9.60;;;7.27;;
12947;SDS011;6539;49.476;8.484;2022-11-13T06:36:30;10.03;;;8.20;;
12947;SDS011;6539;49.476;8.484;2022-11-13T06:38:58;10.07;;;8.47;;
12947;SDS011;6539;49.476;8.484;2022-11-13T06:41:29;10.57;;;8.47;;
12947;SDS011;6539;49.476;8.484;2022-11-13T06:43:56;10.70;;;8.77;;
12947;SDS011;6539;49.476;8.484;2022-11-13T06:46:29;8.67;;;7.30;;
12947;SDS011;6539;49.476;8.484;2022-11-13T06:48:57;10.65;;;8.38;;
12947;SDS011;6539;49.476;8.484;2022-11-13T06:51:24;9.87;;;8.13;;
12947;SDS011;6539;49.476;8.484;2022-11-13T06:53:56;10.23;;;8.10;;
12947;SDS011;6539;49.476;8.484;2022-11-13T06:56:24;11.13;;;8.10;;
12947;SDS011;6539;49.476;8.484;2022-11-13T06:58:51;9.30;;;7.80;;
12947;SDS011;6539;49.476;8.484;2022-11-13T07:01:21;12.67;;;9.47;;
12947;SDS011;6539;49.476;8.484;2022-11-13T07:03:53;11.87;;;8.53;;
12947;SDS011;6539;49.476;8.484;2022-11-13T07:06:24;9.60;;;8.53;;
12947;SDS011;6539;49.476;8.484;2022-11-13T07:08:51;12.43;;;8.83;;
12947;SDS011;6539;49.476;8.484;2022-11-13T07:11:21;10.50;;;8.73;;
12947;SDS011;6539;49.476;8.484;2022-11-13T07:13:51;9.03;;;8.13;;
12947;SDS011;6539;49.476;8.484;2022-11-13T07:16:19;10.60;;;8.57;;
12947;SDS011;6539;49.476;8.484;2022-11-13T07:18:53;9.37;;;7.97;;
12947;SDS011;6539;49.476;8.484;2022-11-13T07:21:19;10.20;;;8.30;;
12947;SDS011;6539;49.476;8.484;2022-11-13T07:23:47;10.60;;;8.03;;
12947;SDS011;6539;49.476;8.484;2022-11-13T07:26:14;10.50;;;8.53;;
12947;SDS011;6539;49.476;8.484;2022-11-13T07:28:42;12.50;;;7.73;;
12947;SDS011;6539;49.476;8.484;2022-11-13T07:31:08;10.53;;;8.90;;
12947;SDS011;6539;49.476;8.484;2022-11-13T07:33:39;11.10;;;8.40;;
12947;SDS011;6539;49.476;8.484;2022-11-13T07:36:08;10.37;;;8.13;;
12947;SDS011;6539;49.476;8.484;2022-11-13T07:38:35;12.57;;;8.60;;
12947;SDS011;6539;49.476;8.484;2022-11-13T07:41:03;11.03;;;8.67;;
12947;SDS011;6539;49.476;8.484;2022-11-13T07:43:31;10.20;;;7.90;;
12947;SDS011;6539;49.476;8.484;2022-11-13T07:46:00;12.07;;;8.33;;
12947;SDS011;6539;49.476;8.484;2022-11-13T07:48:26;12.45;;;9.45;;
12947;SDS011;6539;49.476;8.484;2022-11-13T07:50:52;10.40;;;9.07;;
12947;SDS011;6539;49.476;8.484;2022-11-13T07:53:19;10.90;;;8.70;;
12947;SDS011;6539;49.476;8.484;2022-11-13T07:55:46;12.10;;;9.27;;
12947;SDS011;6539;49.476;8.484;2022-11-13T07:58:14;9.73;;;8.57;;
12947;SDS011;6539;49.476;8.484;2022-11-13T08:00:44;10.37;;;8.40;;
12947;SDS011;6539;49.476;8.484;2022-11-13T08:03:11;10.77;;;8.37;;
12947;SDS011;6539;49.476;8.484;2022-11-13T08:05:41;11.60;;;8.53;;
12947;SDS011;6539;49.476;8.484;2022-11-13T08:08:10;12.67;;;8.77;;
12947;SDS011;6539;49.476;8.484;2022-11-13T08:10:37;10.20;;;9.03;;
12947;SDS011;6539;49.476;8.484;2022-11-13T08:13:04;12.33;;;8.80;;
12947;SDS011;6539;49.476;8.484;2022-11-13T08:15:35;10.70;;;8.50;;
12947;SDS011;6539;49.476;8.484;2022-11-13T08:18:04;9.80;;;8.00;;
12947;SDS011;6539;49.476;8.484;2022-11-13T08:20:32;9.50;;;8.27;;
12947;SDS011;6539;49.476;8.484;2022-11-13T08:23:01;9.23;;;7.73;;
12947;SDS011;6539;49.476;8.484;2022-11-13T08:25:29;9.60;;;8.10;;
12947;SDS011;6539;49.476;8.484;2022-11-13T08:27:57;9.07;;;7.70;;
12947;SDS011;6539;49.476;8.484;2022-11-13T08:30:26;10.27;;;8.07;;
12947;SDS011;6539;49.476;8.484;2022-11-13T08:32:53;15.63;;;11.20;;
12947;SDS011;6539;49.476;8.484;2022-11-13T08:35:19;17.33;;;12.70;;
12947;SDS011;6539;49.476;8.484;2022-11-13T08:37:48;16.07;;;11.93;;
12947;SDS011;6539;49.476;8.484;2022-11-13T08:40:14;20.97;;;13.73;;
12947;SDS011;6539;49.476;8.484;2022-11-13T08:42:42;34.07;;;16.13;;
12947;SDS011;6539;49.476;8.484;2022-11-13T08:45:10;36.60;;;19.80;;
12947;SDS011;6539;49.476;8.484;2022-11-13T08:47:36;52.97;;;23.60;;
12947;SDS011;6539;49.476;8.484;2022-11-13T08:50:05;53.73;;;25.50;;
12947;SDS011;6539;49.476;8.484;2022-11-13T08:52:31;53.37;;;24.07;;
12947;SDS011;6539;49.476;8.484;2022-11-13T08:54:59;31.63;;;16.80;;
12947;SDS011;6539;49.476;8.484;2022-11-13T08:57:27;34.53;;;17.70;;
12947;SDS011;6539;49.476;8.484;2022-11-13T08:59:56;39.97;;;19.53;;
12947;SDS011;6539;49.476;8.484;2022-11-13T09:02:24;29.00;;;16.80;;
12947;SDS011;6539;49.476;8.484;2022-11-13T09:04:51;26.47;;;14.60;;
12947;SDS011;6539;49.476;8.484;2022-11-13T09:07:18;30.40;;;16.20;;
12947;SDS011;6539;49.476;8.484;2022-11-13T09:09:49;35.83;;;18.87;;
12947;SDS011;6539;49.476;8.484;2022-11-13T09:12:16;40.73;;;19.87;;
12947;SDS011;6539;49.476;8.484;2022-11-13T09:14:44;22.77;;;13.47;;
12947;SDS011;6539;49.476;8.484;2022-11-13T09:17:12;16.00;;;11.13;;
12947;SDS011;6539;49.476;8.484;2022-11-13T09:19:38;14.50;;;10.90;;
12947;SDS011;6539;49.476;8.484;2022-11-13T09:22:04;12.20;;;9.60;;
12947;SDS011;6539;49.476;8.484;2022-11-13T09:24:29;10.63;;;9.43;;
12947;SDS011;6539;49.476;8.484;2022-11-13T09:26:58;9.40;;;7.90;;
12947;SDS011;6539;49.476;8.484;2022-11-13T09:29:23;9.83;;;8.33;;
12947;SDS011;6539;49.476;8.484;2022-11-13T09:31:51;9.47;;;8.47;;
12947;SDS011;6539;49.476;8.484;2022-11-13T09:34:16;9.13;;;8.23;;
12947;SDS011;6539;49.476;8.484;2022-11-13T09:36:48;9.43;;;8.43;;
12947;SDS011;6539;49.476;8.484;2022-11-13T09:39:16;10.67;;;8.23;;
12947;SDS011;6539;49.476;8.484;2022-11-13T09:41:55;12.10;;;9.00;;
12947;SDS011;6539;49.476;8.484;2022-11-13T09:44:54;13.60;;;10.77;;
12947;SDS011;6539;49.476;8.484;2022-11-13T09:47:49;9.90;;;8.10;;
12947;SDS011;6539;49.476;8.484;2022-11-13T09:50:21;11.53;;;9.10;;
12947;SDS011;6539;49.476;8.484;2022-11-13T09:52:54;12.60;;;9.77;;
12947;SDS011;6539;49.476;8.484;2022-11-13T09:55:21;11.57;;;9.40;;
12947;SDS011;6539;49.476;8.484;2022-11-13T09:58:10;11.73;;;9.63;;
12947;SDS011;6539;49.476;8.484;2022-11-13T10:00:57;14.23;;;11.67;;
12947;SDS011;6539;49.476;8.484;2022-11-13T10:03:42;12.63;;;9.47;;
12947;SDS011;6539;49.476;8.484;2022-11-13T10:06:29;17.33;;;13.17;;
12947;SDS011;6539;49.476;8.484;2022-11-13T10:09:34;15.90;;;12.03;;
12947;SDS011;6539;49.476;8.484;2022-11-13T10:12:23;14.23;;;11.73;;
12947;SDS011;6539;49.476;8.484;2022-11-13T10:14:56;14.60;;;11.10;;
12947;SDS011;6539;49.476;8.484;2022-11-13T10:17:30;17.07;;;12.37;;
12947;SDS011;6539;49.476;8.484;2022-11-13T10:20:10;25.30;;;19.83;;
12947;SDS011;6539;49.476;8.484;2022-11-13T10:23:07;18.07;;;14.20;;
12947;SDS011;6539;49.476;8.484;2022-11-13T10:25:52;15.67;;;11.60;;
12947;SDS011;6539;49.476;8.484;2022-11-13T10:28:36;14.43;;;10.80;;
12947;SDS011;6539;49.476;8.484;2022-11-13T10:31:04;14.33;;;11.63;;
12947;SDS011;6539;49.476;8.484;2022-11-13T10:33:30;20.00;;;13.57;;
12947;SDS011;6539;49.476;8.484;2022-11-13T10:36:44;25.57;;;16.83;;
12947;SDS011;6539;49.476;8.484;2022-11-13T10:38:57;33.10;;;19.80;;
12947;SDS011;6539;49.476;8.484;2022-11-13T10:41:52;26.13;;;18.83;;
12947;SDS011;6539;49.476;8.484;2022-11-13T10:47:18;26.07;;;18.20;;
12947;SDS011;6539;49.476;8.484;2022-11-13T10:49:49;31.43;;;19.77;;
12947;SDS011;6539;49.476;8.484;2022-11-13T10:54:48;22.57;;;15.77;;
12947;SDS011;6539;49.476;8.484;2022-11-13T10:57:22;19.43;;;14.60;;
12947;SDS011;6539;49.476;8.484;2022-11-13T11:00:00;17.47;;;12.93;;
12947;SDS011;6539;49.476;8.484;2022-11-13T11:02:47;12.53;;;11.07;;
12947;SDS011;6539;49.476;8.484;2022-11-13T11:05:18;12.17;;;10.60;;
12947;SDS011;6539;49.476;8.484;2022-11-13T11:07:52;12.67;;;11.37;;
12947;SDS011;6539;49.476;8.484;2022-11-13T11:10:26;13.13;;;11.47;;
12947;SDS011;6539;49.476;8.484;2022-11-13T11:13:10;15.53;;;12.23;;
12947;SDS011;6539;49.476;8.484;2022-11-13T11:18:19;13.30;;;11.47;;
12947;SDS011;6539;49.476;8.484;2022-11-13T11:21:14;16.00;;;11.83;;
12947;SDS011;6539;49.476;8.484;2022-11-13T11:23:56;13.87;;;11.53;;
12947;SDS011;6539;49.476;8.484;2022-11-13T11:26:41;14.47;;;11.40;;
12947;SDS011;6539;49.476;8.484;2022-11-13T11:29:45;13.93;;;12.03;;
12947;SDS011;6539;49.476;8.484;2022-11-13T11:32:24;15.27;;;12.50;;
12947;SDS011;6539;49.476;8.484;2022-11-13T11:35:15;15.87;;;10.83;;
12947;SDS011;6539;49.476;8.484;2022-11-13T11:40:39;13.30;;;11.53;;
12947;SDS011;6539;49.476;8.484;2022-11-13T11:46:00;14.57;;;11.33;;
12947;SDS011;6539;49.476;8.484;2022-11-13T11:48:27;12.70;;;10.23;;
12947;SDS011;6539;49.476;8.484;2022-11-13T11:56:52;12.80;;;11.40;;
12947;SDS011;6539;49.476;8.484;2022-11-13T12:26:01;10.83;;;9.73;;
12947;SDS011;6539;49.476;8.484;2022-11-13T12:35:07;13.47;;;8.93;;
12947;SDS011;6539;49.476;8.484;2022-11-13T12:46:40;10.33;;;9.17;;
12947;SDS011;6539;49.476;8.484;2022-11-13T12:49:14;10.33;;;9.33;;
12947;SDS011;6539;49.476;8.484;2022-11-13T12:52:11;11.33;;;9.10;;
12947;SDS011;6539;49.476;8.484;2022-11-13T12:55:01;10.43;;;9.23;;
12947;SDS011;6539;49.476;8.484;2022-11-13T12:57:30;10.13;;;9.17;;
12947;SDS011;6539;49.476;8.484;2022-11-13T13:00:10;10.40;;;9.30;;
12947;SDS011;6539;49.476;8.484;2022-11-13T13:03:06;9.67;;;8.53;;
12947;SDS011;6539;49.476;8.484;2022-11-13T13:08:59;10.37;;;9.13;;
12947;SDS011;6539;49.476;8.484;2022-11-13T13:17:21;10.07;;;9.00;;
12947;SDS011;6539;49.476;8.484;2022-11-13T13:20:04;9.57;;;8.63;;
12947;SDS011;6539;49.476;8.484;2022-11-13T13:22:57;9.73;;;8.77;;
12947;SDS011;6539;49.476;8.484;2022-11-13T13:25:28;9.83;;;8.83;;
12947;SDS011;6539;49.476;8.484;2022-11-13T13:28:00;12.90;;;10.00;;
12947;SDS011;6539;49.476;8.484;2022-11-13T13:30:50;10.53;;;9.20;;
12947;SDS011;6539;49.476;8.484;2022-11-13T13:36:36;10.97;;;9.87;;
12947;SDS011;6539;49.476;8.484;2022-11-13T13:48:49;9.67;;;8.77;;
12947;SDS011;6539;49.476;8.484;2022-11-13T13:51:23;10.77;;;8.70;;
12947;SDS011;6539;49.476;8.484;2022-11-13T13:54:17;10.73;;;9.17;;
12947;SDS011;6539;49.476;8.484;2022-11-13T13:56:49;9.90;;;8.80;;
12947;SDS011;6539;49.476;8.484;2022-11-13T13:59:21;10.83;;;9.63;;
12947;SDS011;6539;49.476;8.484;2022-11-13T14:02:01;13.70;;;9.33;;
12947;SDS011;6539;49.476;8.484;2022-11-13T14:04:41;9.50;;;8.37;;
12947;SDS011;6539;49.476;8.484;2022-11-13T14:07:17;9.27;;;8.00;;
12947;SDS011;6539;49.476;8.484;2022-11-13T14:09:46;9.03;;;8.13;;
12947;SDS011;6539;49.476;8.484;2022-11-13T14:12:20;9.47;;;8.07;;
12947;SDS011;6539;49.476;8.484;2022-11-13T14:14:46;10.17;;;8.33;;
12947;SDS011;6539;49.476;8.484;2022-11-13T14:17:20;9.63;;;7.87;;
12947;SDS011;6539;49.476;8.484;2022-11-13T14:19:53;9.20;;;8.27;;
12947;SDS011;6539;49.476;8.484;2022-11-13T14:22:24;9.77;;;8.00;;
12947;SDS011;6539;49.476;8.484;2022-11-13T14:24:57;11.00;;;7.80;;
12947;SDS011;6539;49.476;8.484;2022-11-13T14:27:26;8.90;;;8.00;;
12947;SDS011;6539;49.476;8.484;2022-11-13T14:29:58;8.67;;;7.53;;
12947;SDS011;6539;49.476;8.484;2022-11-13T14:34:58;8.50;;;7.70;;
12947;SDS011;6539;49.476;8.484;2022-11-13T14:37:45;8.90;;;7.43;;
12947;SDS011;6539;49.476;8.484;2022-11-13T14:40:14;8.47;;;7.20;;
12947;SDS011;6539;49.476;8.484;2022-11-13T14:42:55;8.57;;;7.70;;
12947;SDS011;6539;49.476;8.484;2022-11-13T14:45:30;8.63;;;7.43;;
12947;SDS011;6539;49.476;8.484;2022-11-13T14:50:50;8.50;;;6.93;;
12947;SDS011;6539;49.476;8.484;2022-11-13T14:55:56;7.93;;;7.13;;
12947;SDS011;6539;49.476;8.484;2022-11-13T14:58:30;7.97;;;5.90;;
12947;SDS011;6539;49.476;8.484;2022-11-13T15:01:16;7.30;;;5.47;;
12947;SDS011;6539;49.476;8.484;2022-11-13T15:03:48;6.13;;;4.83;;
12947;SDS011;6539;49.476;8.484;2022-11-13T15:06:17;6.93;;;4.50;;
12947;SDS011;6539;49.476;8.484;2022-11-13T15:08:45;6.37;;;5.10;;
12947;SDS011;6539;49.476;8.484;2022-11-13T15:11:13;6.47;;;5.57;;
12947;SDS011;6539;49.476;8.484;2022-11-13T15:13:42;5.73;;;4.57;;
12947;SDS011;6539;49.476;8.484;2022-11-13T15:16:12;6.27;;;4.30;;
12947;SDS011;6539;49.476;8.484;2022-11-13T15:18:51;5.77;;;4.60;;
12947;SDS011;6539;49.476;8.484;2022-11-13T15:21:28;5.73;;;4.40;;
12947;SDS011;6539;49.476;8.484;2022-11-13T15:23:57;8.10;;;4.60;;
12947;SDS011;6539;49.476;8.484;2022-11-13T15:26:25;4.73;;;4.23;;
12947;SDS011;6539;49.476;8.484;2022-11-13T15:28:51;4.67;;;4.00;;
12947;SDS011;6539;49.476;8.484;2022-11-13T15:31:18;4.40;;;4.00;;
12947;SDS011;6539;49.476;8.484;2022-11-13T15:33:53;4.67;;;4.13;;
12947;SDS011;6539;49.476;8.484;2022-11-13T15:36:22;5.80;;;5.20;;
12947;SDS011;6539;49.476;8.484;2022-11-13T15:38:53;8.77;;;7.20;;
12947;SDS011;6539;49.476;8.484;2022-11-13T15:41:20;8.23;;;7.30;;
12947;SDS011;6539;49.476;8.484;2022-11-13T15:43:51;9.30;;;7.90;;
12947;SDS011;6539;49.476;8.484;2022-11-13T15:46:22;9.80;;;8.27;;
12947;SDS011;6539;49.476;8.484;2022-11-13T15:48:49;10.80;;;8.50;;
12947;SDS011;6539;49.476;8.484;2022-11-13T15:51:25;10.07;;;9.07;;
12947;SDS011;6539;49.476;8.484;2022-11-13T15:53:59;12.07;;;9.40;;
12947;SDS011;6539;49.476;8.484;2022-11-13T15:56:43;11.00;;;9.83;;
12947;SDS011;6539;49.476;8.484;2022-11-13T15:59:13;10.30;;;9.20;;
12947;SDS011;6539;49.476;8.484;2022-11-13T16:01:42;12.03;;;9.87;;
12947;SDS011;6539;49.476;8.484;2022-11-13T16:04:08;11.70;;;10.50;;
12947;SDS011;6539;49.476;8.484;2022-11-13T16:06:36;12.13;;;10.13;;
12947;SDS011;6539;49.476;8.484;2022-11-13T16:09:04;12.13;;;10.37;;
12947;SDS011;6539;49.476;8.484;2022-11-13T16:11:33;12.33;;;10.67;;
12947;SDS011;6539;49.476;8.484;2022-11-13T16:14:01;13.57;;;11.97;;
12947;SDS011;6539;49.476;8.484;2022-11-13T16:16:30;14.53;;;12.87;;
12947;SDS011;6539;49.476;8.484;2022-11-13T16:19:00;14.23;;;12.73;;
12947;SDS011;6539;49.476;8.484;2022-11-13T16:21:28;16.83;;;13.87;;
12947;SDS011;6539;49.476;8.484;2022-11-13T16:23:54;17.43;;;14.30;;
12947;SDS011;6539;49.476;8.484;2022-11-13T16:26:23;16.57;;;13.03;;
12947;SDS011;6539;49.476;8.484;2022-11-13T16:28:53;15.43;;;13.13;;
12947;SDS011;6539;49.476;8.484;2022-11-13T16:31:19;17.27;;;11.97;;
12947;SDS011;6539;49.476;8.484;2022-11-13T16:33:46;16.67;;;13.20;;
12947;SDS011;6539;49.476;8.484;2022-11-13T16:36:13;15.63;;;13.27;;
12947;SDS011;6539;49.476;8.484;2022-11-13T16:38:42;14.83;;;12.97;;
12947;SDS011;6539;49.476;8.484;2022-11-13T16:41:09;17.10;;;12.87;;
12947;SDS011;6539;49.476;8.484;2022-11-13T16:43:40;14.87;;;12.40;;
12947;SDS011;6539;49.476;8.484;2022-11-13T16:46:25;15.10;;;12.17;;